sensor_id;sensor_type;location;lat;lon;timestamp;P1;durP1;ratioP1;P2;durP2;ratioP2
49764;SDS011;35657;51.204;-4.130;2023-02-28T00:01:21;8.52;;;2.20;;
49764;SDS011;35657;51.204;-4.130;2023-02-28T00:03:47;4.22;;;2.50;;
49764;SDS011;35657;51.204;-4.130;2023-02-28T00:06:13;4.85;;;2.28;;
49764;SDS011;35657;51.204;-4.130;2023-02-28T00:08:40;3.75;;;1.73;;
49764;SDS011;35657;51.204;-4.130;2023-02-28T00:11:10;2.55;;;1.50;;
49764;SDS011;35657;51.204;-4.130;2023-02-28T00:13:38;3.78;;;1.98;;
49764;SDS011;35657;51.204;-4.130;2023-02-28T00:16:07;4.97;;;2.00;;
49764;SDS011;35657;51.204;-4.130;2023-02-28T00:18:35;5.53;;;2.28;;
49764;SDS011;35657;51.204;-4.130;2023-02-28T00:21:01;7.60;;;1.90;;
49764;SDS011;35657;51.204;-4.130;2023-02-28T00:23:27;4.18;;;1.98;;
49764;SDS011;35657;51.204;-4.130;2023-02-28T00:25:53;5.35;;;1.50;;
49764;SDS011;35657;51.204;-4.130;2023-02-28T00:28:19;4.95;;;2.00;;
49764;SDS011;35657;51.204;-4.130;2023-02-28T00:30:45;7.60;;;2.00;;
49764;SDS011;35657;51.204;-4.130;2023-02-28T00:33:11;6.47;;;1.50;;
49764;SDS011;35657;51.204;-4.130;2023-02-28T00:35:37;7.90;;;1.38;;
49764;SDS011;35657;51.204;-4.130;2023-02-28T00:38:03;8.60;;;1.63;;
49764;SDS011;35657;51.204;-4.130;2023-02-28T00:40:29;5.90;;;1.65;;
49764;SDS011;35657;51.204;-4.130;2023-02-28T00:42:55;5.20;;;1.80;;
49764;SDS011;35657;51.204;-4.130;2023-02-28T00:45:21;6.35;;;1.30;;
49764;SDS011;35657;51.204;-4.130;2023-02-28T00:47:46;9.15;;;1.60;;
49764;SDS011;35657;51.204;-4.130;2023-02-28T00:50:16;5.25;;;1.67;;
49764;SDS011;35657;51.204;-4.130;2023-02-28T00:52:43;2.22;;;1.20;;
49764;SDS011;35657;51.204;-4.130;2023-02-28T00:55:09;7.70;;;2.10;;
49764;SDS011;35657;51.204;-4.130;2023-02-28T00:57:35;6.18;;;1.95;;
49764;SDS011;35657;51.204;-4.130;2023-02-28T01:00:01;3.28;;;1.58;;
49764;SDS011;35657;51.204;-4.130;2023-02-28T01:02:27;5.43;;;2.13;;
49764;SDS011;35657;51.204;-4.130;2023-02-28T01:04:53;5.70;;;1.70;;
49764;SDS011;35657;51.204;-4.130;2023-02-28T01:07:18;8.85;;;2.22;;
49764;SDS011;35657;51.204;-4.130;2023-02-28T01:09:44;7.20;;;2.22;;
49764;SDS011;35657;51.204;-4.130;2023-02-28T01:12:10;7.97;;;1.35;;
49764;SDS011;35657;51.204;-4.130;2023-02-28T01:14:36;5.35;;;1.70;;
49764;SDS011;35657;51.204;-4.130;2023-02-28T01:17:01;5.00;;;1.63;;
49764;SDS011;35657;51.204;-4.130;2023-02-28T01:19:27;9.40;;;2.33;;
49764;SDS011;35657;51.204;-4.130;2023-02-28T01:21:53;6.30;;;1.67;;
49764;SDS011;35657;51.204;-4.130;2023-02-28T01:24:19;6.68;;;2.13;;
49764;SDS011;35657;51.204;-4.130;2023-02-28T01:26:44;6.00;;;2.08;;
49764;SDS011;35657;51.204;-4.130;2023-02-28T01:29:10;4.45;;;1.92;;
49764;SDS011;35657;51.204;-4.130;2023-02-28T01:31:36;5.65;;;2.13;;
49764;SDS011;35657;51.204;-4.130;2023-02-28T01:34:02;7.63;;;3.03;;
49764;SDS011;35657;51.204;-4.130;2023-02-28T01:36:28;5.72;;;2.33;;
49764;SDS011;35657;51.204;-4.130;2023-02-28T01:38:54;8.15;;;1.67;;
49764;SDS011;35657;51.204;-4.130;2023-02-28T01:41:21;3.40;;;1.70;;
49764;SDS011;35657;51.204;-4.130;2023-02-28T01:46:14;6.95;;;1.80;;
49764;SDS011;35657;51.204;-4.130;2023-02-28T01:48:42;7.45;;;1.77;;
49764;SDS011;35657;51.204;-4.130;2023-02-28T01:54:10;5.95;;;2.45;;
49764;SDS011;35657;51.204;-4.130;2023-02-28T01:56:42;8.63;;;1.77;;
49764;SDS011;35657;51.204;-4.130;2023-02-28T01:59:12;7.85;;;2.22;;
49764;SDS011;35657;51.204;-4.130;2023-02-28T02:01:45;3.90;;;1.60;;
49764;SDS011;35657;51.204;-4.130;2023-02-28T02:04:11;7.53;;;1.98;;
49764;SDS011;35657;51.204;-4.130;2023-02-28T02:06:40;5.10;;;1.60;;
49764;SDS011;35657;51.204;-4.130;2023-02-28T02:09:08;4.13;;;1.60;;
49764;SDS011;35657;51.204;-4.130;2023-02-28T02:11:34;4.70;;;1.55;;
49764;SDS011;35657;51.204;-4.130;2023-02-28T02:36:23;5.47;;;1.95;;
49764;SDS011;35657;51.204;-4.130;2023-02-28T02:38:58;4.20;;;1.40;;
49764;SDS011;35657;51.204;-4.130;2023-02-28T02:41:54;8.30;;;1.60;;
49764;SDS011;35657;51.204;-4.130;2023-02-28T02:44:22;4.38;;;1.58;;
49764;SDS011;35657;51.204;-4.130;2023-02-28T02:46:58;4.05;;;1.27;;
49764;SDS011;35657;51.204;-4.130;2023-02-28T02:49:31;3.45;;;1.58;;
49764;SDS011;35657;51.204;-4.130;2023-02-28T02:52:00;4.78;;;1.73;;
49764;SDS011;35657;51.204;-4.130;2023-02-28T02:54:33;4.32;;;1.40;;
49764;SDS011;35657;51.204;-4.130;2023-02-28T02:57:10;3.70;;;1.33;;
49764;SDS011;35657;51.204;-4.130;2023-02-28T02:59:42;3.97;;;1.15;;
49764;SDS011;35657;51.204;-4.130;2023-02-28T03:02:10;5.82;;;1.60;;
49764;SDS011;35657;51.204;-4.130;2023-02-28T03:04:43;6.18;;;1.38;;
49764;SDS011;35657;51.204;-4.130;2023-02-28T03:07:13;8.95;;;1.48;;
49764;SDS011;35657;51.204;-4.130;2023-02-28T03:09:39;4.75;;;1.73;;
49764;SDS011;35657;51.204;-4.130;2023-02-28T03:12:07;2.28;;;0.95;;
49764;SDS011;35657;51.204;-4.130;2023-02-28T03:14:40;6.60;;;1.60;;
49764;SDS011;35657;51.204;-4.130;2023-02-28T03:30:36;4.63;;;1.13;;
49764;SDS011;35657;51.204;-4.130;2023-02-28T03:36:04;3.60;;;0.95;;
49764;SDS011;35657;51.204;-4.130;2023-02-28T03:38:45;2.47;;;1.00;;
49764;SDS011;35657;51.204;-4.130;2023-02-28T03:41:21;5.55;;;1.00;;
49764;SDS011;35657;51.204;-4.130;2023-02-28T03:44:00;3.50;;;1.20;;
49764;SDS011;35657;51.204;-4.130;2023-02-28T03:46:32;5.30;;;0.50;;
49764;SDS011;35657;51.204;-4.130;2023-02-28T03:49:04;2.78;;;1.10;;
49764;SDS011;35657;51.204;-4.130;2023-02-28T03:51:40;3.83;;;1.23;;
49764;SDS011;35657;51.204;-4.130;2023-02-28T03:54:08;4.93;;;1.40;;
49764;SDS011;35657;51.204;-4.130;2023-02-28T03:56:38;6.10;;;1.65;;
49764;SDS011;35657;51.204;-4.130;2023-02-28T03:59:26;6.15;;;1.50;;
49764;SDS011;35657;51.204;-4.130;2023-02-28T04:02:14;2.72;;;0.85;;
49764;SDS011;35657;51.204;-4.130;2023-02-28T04:04:40;3.13;;;0.70;;
49764;SDS011;35657;51.204;-4.130;2023-02-28T04:07:10;3.08;;;0.80;;
49764;SDS011;35657;51.204;-4.130;2023-02-28T04:09:36;2.30;;;0.68;;
49764;SDS011;35657;51.204;-4.130;2023-02-28T04:12:02;4.63;;;1.33;;
49764;SDS011;35657;51.204;-4.130;2023-02-28T04:14:28;1.08;;;0.65;;
49764;SDS011;35657;51.204;-4.130;2023-02-28T04:16:54;4.32;;;0.57;;
49764;SDS011;35657;51.204;-4.130;2023-02-28T04:19:20;2.08;;;0.63;;
49764;SDS011;35657;51.204;-4.130;2023-02-28T04:21:49;4.82;;;0.63;;
49764;SDS011;35657;51.204;-4.130;2023-02-28T04:24:20;3.30;;;0.90;;
49764;SDS011;35657;51.204;-4.130;2023-02-28T04:26:48;3.83;;;0.70;;
49764;SDS011;35657;51.204;-4.130;2023-02-28T04:29:29;1.65;;;1.55;;
49764;SDS011;35657;51.204;-4.130;2023-02-28T04:31:57;7.57;;;1.02;;
49764;SDS011;35657;51.204;-4.130;2023-02-28T04:34:24;2.03;;;0.80;;
49764;SDS011;35657;51.204;-4.130;2023-02-28T04:36:51;2.72;;;1.10;;
49764;SDS011;35657;51.204;-4.130;2023-02-28T04:39:19;4.80;;;0.60;;
49764;SDS011;35657;51.204;-4.130;2023-02-28T04:41:46;2.10;;;0.73;;
49764;SDS011;35657;51.204;-4.130;2023-02-28T04:44:12;5.25;;;1.58;;
49764;SDS011;35657;51.204;-4.130;2023-02-28T04:46:38;3.50;;;1.00;;
49764;SDS011;35657;51.204;-4.130;2023-02-28T04:49:04;4.85;;;1.05;;
49764;SDS011;35657;51.204;-4.130;2023-02-28T04:51:30;1.65;;;0.90;;
49764;SDS011;35657;51.204;-4.130;2023-02-28T04:53:56;2.75;;;1.02;;
49764;SDS011;35657;51.204;-4.130;2023-02-28T04:56:21;4.18;;;0.95;;
49764;SDS011;35657;51.204;-4.130;2023-02-28T04:58:48;2.67;;;0.85;;
49764;SDS011;35657;51.204;-4.130;2023-02-28T05:01:24;1.52;;;0.85;;
49764;SDS011;35657;51.204;-4.130;2023-02-28T05:03:53;2.03;;;0.60;;
49764;SDS011;35657;51.204;-4.130;2023-02-28T05:06:20;1.75;;;1.00;;
49764;SDS011;35657;51.204;-4.130;2023-02-28T05:08:48;10.77;;;1.50;;
49764;SDS011;35657;51.204;-4.130;2023-02-28T05:13:51;1.15;;;0.93;;
49764;SDS011;35657;51.204;-4.130;2023-02-28T05:16:18;1.70;;;1.27;;
49764;SDS011;35657;51.204;-4.130;2023-02-28T05:18:44;2.92;;;1.00;;
49764;SDS011;35657;51.204;-4.130;2023-02-28T05:24:00;3.15;;;0.98;;
49764;SDS011;35657;51.204;-4.130;2023-02-28T05:26:28;1.75;;;0.73;;
49764;SDS011;35657;51.204;-4.130;2023-02-28T05:28:54;1.48;;;0.80;;
49764;SDS011;35657;51.204;-4.130;2023-02-28T05:31:20;5.00;;;0.77;;
49764;SDS011;35657;51.204;-4.130;2023-02-28T05:33:46;2.88;;;0.80;;
49764;SDS011;35657;51.204;-4.130;2023-02-28T05:36:12;1.55;;;0.70;;
49764;SDS011;35657;51.204;-4.130;2023-02-28T05:38:39;3.03;;;0.80;;
49764;SDS011;35657;51.204;-4.130;2023-02-28T05:41:08;1.38;;;0.90;;
49764;SDS011;35657;51.204;-4.130;2023-02-28T05:43:35;1.77;;;1.00;;
49764;SDS011;35657;51.204;-4.130;2023-02-28T05:46:08;1.67;;;0.93;;
49764;SDS011;35657;51.204;-4.130;2023-02-28T05:48:36;4.10;;;1.15;;
49764;SDS011;35657;51.204;-4.130;2023-02-28T05:51:03;1.52;;;0.60;;
49764;SDS011;35657;51.204;-4.130;2023-02-28T05:53:30;2.70;;;0.93;;
49764;SDS011;35657;51.204;-4.130;2023-02-28T05:55:56;2.40;;;0.90;;
49764;SDS011;35657;51.204;-4.130;2023-02-28T05:58:22;1.55;;;0.80;;
49764;SDS011;35657;51.204;-4.130;2023-02-28T06:00:50;2.13;;;0.80;;
49764;SDS011;35657;51.204;-4.130;2023-02-28T06:03:16;2.85;;;0.70;;
49764;SDS011;35657;51.204;-4.130;2023-02-28T06:05:42;2.20;;;0.93;;
49764;SDS011;35657;51.204;-4.130;2023-02-28T06:08:07;4.43;;;1.35;;
49764;SDS011;35657;51.204;-4.130;2023-02-28T06:10:34;2.03;;;0.90;;
49764;SDS011;35657;51.204;-4.130;2023-02-28T06:13:00;1.52;;;1.13;;
49764;SDS011;35657;51.204;-4.130;2023-02-28T06:15:27;4.43;;;2.30;;
49764;SDS011;35657;51.204;-4.130;2023-02-28T06:17:54;3.15;;;1.00;;
49764;SDS011;35657;51.204;-4.130;2023-02-28T06:20:21;2.97;;;0.80;;
49764;SDS011;35657;51.204;-4.130;2023-02-28T06:22:48;3.47;;;1.75;;
49764;SDS011;35657;51.204;-4.130;2023-02-28T06:25:15;3.42;;;1.40;;
49764;SDS011;35657;51.204;-4.130;2023-02-28T06:27:41;1.95;;;1.08;;
49764;SDS011;35657;51.204;-4.130;2023-02-28T06:30:08;3.95;;;1.20;;
49764;SDS011;35657;51.204;-4.130;2023-02-28T06:32:35;3.75;;;0.90;;
49764;SDS011;35657;51.204;-4.130;2023-02-28T06:35:01;2.20;;;0.95;;
49764;SDS011;35657;51.204;-4.130;2023-02-28T06:37:27;2.40;;;1.13;;
49764;SDS011;35657;51.204;-4.130;2023-02-28T06:39:53;4.00;;;1.33;;
49764;SDS011;35657;51.204;-4.130;2023-02-28T06:42:21;3.55;;;0.90;;
49764;SDS011;35657;51.204;-4.130;2023-02-28T06:44:53;4.82;;;1.00;;
49764;SDS011;35657;51.204;-4.130;2023-02-28T06:47:20;2.35;;;0.98;;
49764;SDS011;35657;51.204;-4.130;2023-02-28T06:49:46;3.20;;;1.13;;
49764;SDS011;35657;51.204;-4.130;2023-02-28T06:52:11;4.13;;;1.20;;
49764;SDS011;35657;51.204;-4.130;2023-02-28T06:54:37;1.40;;;0.85;;
49764;SDS011;35657;51.204;-4.130;2023-02-28T06:57:03;1.60;;;0.90;;
49764;SDS011;35657;51.204;-4.130;2023-02-28T06:59:29;2.03;;;0.60;;
49764;SDS011;35657;51.204;-4.130;2023-02-28T07:01:55;1.88;;;0.95;;
49764;SDS011;35657;51.204;-4.130;2023-02-28T07:04:21;1.38;;;0.50;;
49764;SDS011;35657;51.204;-4.130;2023-02-28T07:06:47;3.47;;;1.05;;
49764;SDS011;35657;51.204;-4.130;2023-02-28T07:09:13;5.50;;;0.70;;
49764;SDS011;35657;51.204;-4.130;2023-02-28T07:11:39;1.10;;;0.60;;
49764;SDS011;35657;51.204;-4.130;2023-02-28T07:14:06;1.98;;;0.90;;
49764;SDS011;35657;51.204;-4.130;2023-02-28T07:16:32;1.00;;;0.63;;
49764;SDS011;35657;51.204;-4.130;2023-02-28T07:18:58;0.80;;;0.80;;
49764;SDS011;35657;51.204;-4.130;2023-02-28T07:21:24;2.20;;;1.10;;
49764;SDS011;35657;51.204;-4.130;2023-02-28T07:23:50;2.40;;;0.85;;
49764;SDS011;35657;51.204;-4.130;2023-02-28T07:26:17;1.63;;;0.65;;
49764;SDS011;35657;51.204;-4.130;2023-02-28T07:28:44;3.45;;;0.70;;
49764;SDS011;35657;51.204;-4.130;2023-02-28T07:31:11;1.77;;;0.70;;
49764;SDS011;35657;51.204;-4.130;2023-02-28T07:33:39;1.05;;;0.68;;
49764;SDS011;35657;51.204;-4.130;2023-02-28T07:36:06;1.65;;;0.88;;
49764;SDS011;35657;51.204;-4.130;2023-02-28T07:38:34;3.08;;;1.48;;
49764;SDS011;35657;51.204;-4.130;2023-02-28T07:41:01;1.92;;;0.80;;
49764;SDS011;35657;51.204;-4.130;2023-02-28T07:43:31;3.17;;;0.90;;
49764;SDS011;35657;51.204;-4.130;2023-02-28T07:46:06;1.33;;;0.63;;
49764;SDS011;35657;51.204;-4.130;2023-02-28T07:48:34;1.15;;;0.60;;
49764;SDS011;35657;51.204;-4.130;2023-02-28T07:51:00;1.20;;;0.70;;
49764;SDS011;35657;51.204;-4.130;2023-02-28T07:53:26;1.65;;;0.70;;
49764;SDS011;35657;51.204;-4.130;2023-02-28T07:55:56;1.00;;;0.70;;
49764;SDS011;35657;51.204;-4.130;2023-02-28T07:58:23;2.85;;;0.80;;
49764;SDS011;35657;51.204;-4.130;2023-02-28T08:00:49;1.52;;;0.77;;
49764;SDS011;35657;51.204;-4.130;2023-02-28T08:03:17;1.58;;;0.70;;
49764;SDS011;35657;51.204;-4.130;2023-02-28T08:05:44;1.00;;;0.50;;
49764;SDS011;35657;51.204;-4.130;2023-02-28T08:08:09;1.45;;;0.68;;
49764;SDS011;35657;51.204;-4.130;2023-02-28T08:10:35;1.15;;;0.52;;
49764;SDS011;35657;51.204;-4.130;2023-02-28T08:13:01;1.30;;;0.60;;
49764;SDS011;35657;51.204;-4.130;2023-02-28T08:15:27;2.08;;;0.68;;
49764;SDS011;35657;51.204;-4.130;2023-02-28T08:17:53;1.75;;;0.50;;
49764;SDS011;35657;51.204;-4.130;2023-02-28T08:20:21;3.83;;;0.70;;
49764;SDS011;35657;51.204;-4.130;2023-02-28T08:22:47;2.03;;;0.70;;
49764;SDS011;35657;51.204;-4.130;2023-02-28T08:25:13;2.75;;;0.63;;
49764;SDS011;35657;51.204;-4.130;2023-02-28T08:27:39;1.33;;;0.70;;
49764;SDS011;35657;51.204;-4.130;2023-02-28T08:30:05;5.07;;;0.77;;
49764;SDS011;35657;51.204;-4.130;2023-02-28T08:32:32;1.92;;;0.52;;
49764;SDS011;35657;51.204;-4.130;2023-02-28T08:34:58;1.63;;;0.80;;
49764;SDS011;35657;51.204;-4.130;2023-02-28T08:37:24;2.90;;;0.90;;
49764;SDS011;35657;51.204;-4.130;2023-02-28T08:39:50;1.73;;;0.47;;
49764;SDS011;35657;51.204;-4.130;2023-02-28T08:42:16;1.08;;;0.73;;
49764;SDS011;35657;51.204;-4.130;2023-02-28T08:44:42;0.82;;;0.60;;
49764;SDS011;35657;51.204;-4.130;2023-02-28T08:47:08;3.22;;;1.15;;
49764;SDS011;35657;51.204;-4.130;2023-02-28T08:49:33;1.25;;;0.60;;
49764;SDS011;35657;51.204;-4.130;2023-02-28T08:51:59;4.70;;;0.70;;
49764;SDS011;35657;51.204;-4.130;2023-02-28T08:54:25;2.95;;;1.02;;
49764;SDS011;35657;51.204;-4.130;2023-02-28T08:56:50;1.77;;;0.90;;
49764;SDS011;35657;51.204;-4.130;2023-02-28T08:59:16;8.52;;;1.33;;
49764;SDS011;35657;51.204;-4.130;2023-02-28T09:01:42;6.72;;;1.17;;
49764;SDS011;35657;51.204;-4.130;2023-02-28T09:04:08;2.10;;;0.77;;
49764;SDS011;35657;51.204;-4.130;2023-02-28T09:06:35;6.03;;;1.90;;
49764;SDS011;35657;51.204;-4.130;2023-02-28T09:09:02;3.67;;;0.95;;
49764;SDS011;35657;51.204;-4.130;2023-02-28T09:11:31;3.28;;;1.48;;
49764;SDS011;35657;51.204;-4.130;2023-02-28T09:13:57;2.97;;;1.05;;
49764;SDS011;35657;51.204;-4.130;2023-02-28T09:16:25;4.68;;;1.65;;
49764;SDS011;35657;51.204;-4.130;2023-02-28T09:18:51;10.68;;;1.52;;
49764;SDS011;35657;51.204;-4.130;2023-02-28T09:21:17;6.90;;;1.40;;
49764;SDS011;35657;51.204;-4.130;2023-02-28T09:23:44;4.32;;;1.70;;
49764;SDS011;35657;51.204;-4.130;2023-02-28T09:26:21;4.57;;;1.38;;
49764;SDS011;35657;51.204;-4.130;2023-02-28T09:28:50;3.45;;;1.33;;
49764;SDS011;35657;51.204;-4.130;2023-02-28T09:31:19;2.35;;;1.30;;
49764;SDS011;35657;51.204;-4.130;2023-02-28T09:33:47;4.15;;;1.73;;
49764;SDS011;35657;51.204;-4.130;2023-02-28T09:36:14;3.63;;;1.42;;
49764;SDS011;35657;51.204;-4.130;2023-02-28T09:38:40;4.10;;;1.60;;
49764;SDS011;35657;51.204;-4.130;2023-02-28T09:41:15;6.45;;;1.50;;
49764;SDS011;35657;51.204;-4.130;2023-02-28T09:43:45;2.88;;;1.38;;
49764;SDS011;35657;51.204;-4.130;2023-02-28T09:49:04;3.45;;;1.58;;
49764;SDS011;35657;51.204;-4.130;2023-02-28T09:54:27;3.00;;;1.30;;
49764;SDS011;35657;51.204;-4.130;2023-02-28T10:05:12;2.45;;;1.42;;
49764;SDS011;35657;51.204;-4.130;2023-02-28T10:10:18;2.60;;;1.30;;
49764;SDS011;35657;51.204;-4.130;2023-02-28T10:12:45;2.58;;;1.20;;
49764;SDS011;35657;51.204;-4.130;2023-02-28T10:15:14;2.40;;;1.30;;
49764;SDS011;35657;51.204;-4.130;2023-02-28T10:17:43;3.97;;;1.67;;
49764;SDS011;35657;51.204;-4.130;2023-02-28T10:20:13;5.25;;;1.60;;
49764;SDS011;35657;51.204;-4.130;2023-02-28T10:22:56;4.13;;;1.50;;
49764;SDS011;35657;51.204;-4.130;2023-02-28T10:25:32;2.35;;;1.35;;
49764;SDS011;35657;51.204;-4.130;2023-02-28T10:28:10;7.72;;;2.58;;
49764;SDS011;35657;51.204;-4.130;2023-02-28T10:30:38;8.05;;;3.53;;
49764;SDS011;35657;51.204;-4.130;2023-02-28T10:33:17;9.85;;;3.75;;
49764;SDS011;35657;51.204;-4.130;2023-02-28T10:35:46;10.20;;;4.22;;
49764;SDS011;35657;51.204;-4.130;2023-02-28T10:38:15;6.22;;;3.50;;
49764;SDS011;35657;51.204;-4.130;2023-02-28T10:40:49;7.45;;;3.17;;
49764;SDS011;35657;51.204;-4.130;2023-02-28T10:48:36;6.75;;;2.53;;
49764;SDS011;35657;51.204;-4.130;2023-02-28T10:51:02;5.82;;;3.03;;
49764;SDS011;35657;51.204;-4.130;2023-02-28T10:56:04;6.25;;;2.75;;
49764;SDS011;35657;51.204;-4.130;2023-02-28T11:01:20;4.53;;;2.65;;
49764;SDS011;35657;51.204;-4.130;2023-02-28T11:03:46;3.80;;;2.63;;
49764;SDS011;35657;51.204;-4.130;2023-02-28T11:06:15;4.50;;;2.40;;
49764;SDS011;35657;51.204;-4.130;2023-02-28T11:08:54;4.18;;;2.42;;
49764;SDS011;35657;51.204;-4.130;2023-02-28T11:11:22;3.95;;;2.25;;
49764;SDS011;35657;51.204;-4.130;2023-02-28T11:13:58;5.28;;;2.10;;
49764;SDS011;35657;51.204;-4.130;2023-02-28T11:16:36;7.47;;;2.60;;
49764;SDS011;35657;51.204;-4.130;2023-02-28T11:19:03;6.38;;;2.80;;
49764;SDS011;35657;51.204;-4.130;2023-02-28T11:21:40;5.82;;;2.85;;
49764;SDS011;35657;51.204;-4.130;2023-02-28T11:24:31;4.88;;;2.17;;
49764;SDS011;35657;51.204;-4.130;2023-02-28T11:27:02;6.32;;;2.53;;
49764;SDS011;35657;51.204;-4.130;2023-02-28T11:29:31;6.43;;;2.85;;
49764;SDS011;35657;51.204;-4.130;2023-02-28T11:32:04;5.22;;;2.53;;
49764;SDS011;35657;51.204;-4.130;2023-02-28T11:34:34;3.67;;;1.73;;
49764;SDS011;35657;51.204;-4.130;2023-02-28T11:37:02;10.18;;;2.85;;
49764;SDS011;35657;51.204;-4.130;2023-02-28T11:39:34;3.78;;;2.25;;
49764;SDS011;35657;51.204;-4.130;2023-02-28T11:47:33;4.72;;;2.33;;
49764;SDS011;35657;51.204;-4.130;2023-02-28T11:50:22;5.28;;;2.63;;
49764;SDS011;35657;51.204;-4.130;2023-02-28T11:55:26;5.85;;;2.50;;
49764;SDS011;35657;51.204;-4.130;2023-02-28T12:06:51;5.53;;;2.40;;
49764;SDS011;35657;51.204;-4.130;2023-02-28T12:09:46;2.97;;;1.85;;
49764;SDS011;35657;51.204;-4.130;2023-02-28T12:23:22;4.18;;;2.30;;
49764;SDS011;35657;51.204;-4.130;2023-02-28T12:26:02;3.08;;;2.10;;
49764;SDS011;35657;51.204;-4.130;2023-02-28T12:28:33;5.03;;;2.95;;
49764;SDS011;35657;51.204;-4.130;2023-02-28T12:33:35;4.63;;;2.92;;
49764;SDS011;35657;51.204;-4.130;2023-02-28T12:36:08;4.05;;;2.47;;
49764;SDS011;35657;51.204;-4.130;2023-02-28T12:38:41;5.95;;;2.33;;
49764;SDS011;35657;51.204;-4.130;2023-02-28T12:41:22;3.95;;;2.22;;
49764;SDS011;35657;51.204;-4.130;2023-02-28T12:43:56;5.65;;;2.88;;
49764;SDS011;35657;51.204;-4.130;2023-02-28T12:46:42;5.65;;;2.90;;
49764;SDS011;35657;51.204;-4.130;2023-02-28T12:49:27;4.70;;;2.47;;
49764;SDS011;35657;51.204;-4.130;2023-02-28T12:52:13;8.48;;;2.45;;
49764;SDS011;35657;51.204;-4.130;2023-02-28T12:54:45;4.38;;;2.50;;
49764;SDS011;35657;51.204;-4.130;2023-02-28T12:57:36;3.25;;;2.35;;
49764;SDS011;35657;51.204;-4.130;2023-02-28T13:00:11;6.57;;;2.63;;
49764;SDS011;35657;51.204;-4.130;2023-02-28T13:10:16;5.60;;;2.20;;
49764;SDS011;35657;51.204;-4.130;2023-02-28T13:12:50;6.00;;;2.60;;
49764;SDS011;35657;51.204;-4.130;2023-02-28T13:17:53;4.55;;;2.45;;
49764;SDS011;35657;51.204;-4.130;2023-02-28T13:20:37;4.20;;;2.30;;
49764;SDS011;35657;51.204;-4.130;2023-02-28T13:26:12;4.82;;;2.42;;
49764;SDS011;35657;51.204;-4.130;2023-02-28T13:31:24;4.47;;;2.35;;
49764;SDS011;35657;51.204;-4.130;2023-02-28T13:38:56;4.22;;;2.30;;
49764;SDS011;35657;51.204;-4.130;2023-02-28T13:46:24;4.28;;;2.42;;
49764;SDS011;35657;51.204;-4.130;2023-02-28T13:48:49;4.03;;;2.40;;
49764;SDS011;35657;51.204;-4.130;2023-02-28T13:51:33;5.32;;;2.75;;
49764;SDS011;35657;51.204;-4.130;2023-02-28T13:56:42;5.15;;;2.03;;
49764;SDS011;35657;51.204;-4.130;2023-02-28T13:59:33;3.28;;;2.03;;
49764;SDS011;35657;51.204;-4.130;2023-02-28T14:05:14;3.80;;;2.22;;
49764;SDS011;35657;51.204;-4.130;2023-02-28T14:07:44;4.35;;;2.88;;
49764;SDS011;35657;51.204;-4.130;2023-02-28T14:15:58;3.83;;;2.05;;
49764;SDS011;35657;51.204;-4.130;2023-02-28T14:18:36;6.35;;;2.50;;
49764;SDS011;35657;51.204;-4.130;2023-02-28T14:35:53;5.53;;;2.38;;
49764;SDS011;35657;51.204;-4.130;2023-02-28T14:38:34;4.85;;;2.30;;
49764;SDS011;35657;51.204;-4.130;2023-02-28T14:41:06;7.40;;;2.30;;
49764;SDS011;35657;51.204;-4.130;2023-02-28T14:43:47;4.25;;;2.25;;
49764;SDS011;35657;51.204;-4.130;2023-02-28T14:46:18;4.18;;;1.92;;
49764;SDS011;35657;51.204;-4.130;2023-02-28T14:48:45;9.30;;;2.90;;
49764;SDS011;35657;51.204;-4.130;2023-02-28T14:51:18;6.43;;;3.58;;
49764;SDS011;35657;51.204;-4.130;2023-02-28T14:53:52;6.45;;;2.50;;
49764;SDS011;35657;51.204;-4.130;2023-02-28T14:56:27;4.47;;;2.10;;
49764;SDS011;35657;51.204;-4.130;2023-02-28T14:59:02;4.50;;;2.13;;
49764;SDS011;35657;51.204;-4.130;2023-02-28T15:01:29;3.60;;;1.92;;
49764;SDS011;35657;51.204;-4.130;2023-02-28T15:03:57;3.85;;;1.85;;
49764;SDS011;35657;51.204;-4.130;2023-02-28T15:06:26;4.50;;;2.40;;
49764;SDS011;35657;51.204;-4.130;2023-02-28T15:11:47;2.95;;;1.80;;
49764;SDS011;35657;51.204;-4.130;2023-02-28T15:14:16;8.43;;;2.55;;
49764;SDS011;35657;51.204;-4.130;2023-02-28T15:16:44;4.97;;;2.88;;
49764;SDS011;35657;51.204;-4.130;2023-02-28T15:19:24;5.32;;;2.30;;
49764;SDS011;35657;51.204;-4.130;2023-02-28T15:22:00;2.95;;;2.17;;
49764;SDS011;35657;51.204;-4.130;2023-02-28T15:24:42;4.57;;;2.20;;
49764;SDS011;35657;51.204;-4.130;2023-02-28T15:27:14;2.33;;;1.45;;
49764;SDS011;35657;51.204;-4.130;2023-02-28T15:29:47;3.72;;;1.90;;
49764;SDS011;35657;51.204;-4.130;2023-02-28T15:32:27;4.47;;;2.10;;
49764;SDS011;35657;51.204;-4.130;2023-02-28T15:34:59;5.22;;;2.10;;
49764;SDS011;35657;51.204;-4.130;2023-02-28T15:37:47;6.20;;;2.17;;
49764;SDS011;35657;51.204;-4.130;2023-02-28T15:40:26;5.15;;;3.10;;
49764;SDS011;35657;51.204;-4.130;2023-02-28T15:43:31;6.38;;;2.42;;
49764;SDS011;35657;51.204;-4.130;2023-02-28T15:45:59;7.28;;;4.07;;
49764;SDS011;35657;51.204;-4.130;2023-02-28T15:48:35;11.35;;;7.22;;
49764;SDS011;35657;51.204;-4.130;2023-02-28T15:56:47;4.18;;;1.63;;
49764;SDS011;35657;51.204;-4.130;2023-02-28T15:59:23;7.18;;;3.25;;
49764;SDS011;35657;51.204;-4.130;2023-02-28T16:02:11;3.05;;;1.70;;
49764;SDS011;35657;51.204;-4.130;2023-02-28T16:04:53;2.90;;;1.98;;
49764;SDS011;35657;51.204;-4.130;2023-02-28T16:07:40;2.95;;;1.40;;
49764;SDS011;35657;51.204;-4.130;2023-02-28T16:10:11;3.63;;;1.38;;
49764;SDS011;35657;51.204;-4.130;2023-02-28T16:12:39;4.35;;;2.72;;
49764;SDS011;35657;51.204;-4.130;2023-02-28T16:15:08;3.42;;;2.08;;
49764;SDS011;35657;51.204;-4.130;2023-02-28T16:17:52;4.72;;;2.58;;
49764;SDS011;35657;51.204;-4.130;2023-02-28T16:22:49;5.68;;;1.98;;
49764;SDS011;35657;51.204;-4.130;2023-02-28T16:25:16;5.32;;;2.42;;
49764;SDS011;35657;51.204;-4.130;2023-02-28T16:27:44;5.30;;;2.75;;
49764;SDS011;35657;51.204;-4.130;2023-02-28T16:30:21;4.30;;;2.42;;
49764;SDS011;35657;51.204;-4.130;2023-02-28T16:32:49;6.22;;;1.58;;
49764;SDS011;35657;51.204;-4.130;2023-02-28T16:35:16;5.10;;;1.50;;
49764;SDS011;35657;51.204;-4.130;2023-02-28T16:37:43;4.68;;;1.80;;
49764;SDS011;35657;51.204;-4.130;2023-02-28T16:40:19;2.03;;;1.30;;
49764;SDS011;35657;51.204;-4.130;2023-02-28T16:42:48;3.40;;;1.95;;
49764;SDS011;35657;51.204;-4.130;2023-02-28T16:45:16;5.47;;;2.03;;
49764;SDS011;35657;51.204;-4.130;2023-02-28T16:47:49;5.38;;;1.77;;
49764;SDS011;35657;51.204;-4.130;2023-02-28T16:50:17;3.92;;;1.67;;
49764;SDS011;35657;51.204;-4.130;2023-02-28T16:52:47;4.38;;;1.55;;
49764;SDS011;35657;51.204;-4.130;2023-02-28T16:55:14;2.22;;;1.40;;
49764;SDS011;35657;51.204;-4.130;2023-02-28T16:57:40;2.08;;;1.40;;
49764;SDS011;35657;51.204;-4.130;2023-02-28T17:00:08;2.88;;;1.33;;
49764;SDS011;35657;51.204;-4.130;2023-02-28T17:02:37;2.38;;;1.45;;
49764;SDS011;35657;51.204;-4.130;2023-02-28T17:05:03;3.97;;;1.90;;
49764;SDS011;35657;51.204;-4.130;2023-02-28T17:07:29;8.07;;;1.90;;
49764;SDS011;35657;51.204;-4.130;2023-02-28T17:09:55;3.63;;;2.13;;
49764;SDS011;35657;51.204;-4.130;2023-02-28T17:12:21;3.58;;;1.50;;
49764;SDS011;35657;51.204;-4.130;2023-02-28T17:14:46;2.45;;;0.98;;
49764;SDS011;35657;51.204;-4.130;2023-02-28T17:17:16;2.38;;;1.10;;
49764;SDS011;35657;51.204;-4.130;2023-02-28T17:19:44;0.90;;;0.80;;
49764;SDS011;35657;51.204;-4.130;2023-02-28T17:22:10;2.17;;;1.10;;
49764;SDS011;35657;51.204;-4.130;2023-02-28T17:24:36;4.50;;;1.33;;
49764;SDS011;35657;51.204;-4.130;2023-02-28T17:27:02;1.67;;;0.90;;
49764;SDS011;35657;51.204;-4.130;2023-02-28T17:29:28;1.75;;;1.15;;
49764;SDS011;35657;51.204;-4.130;2023-02-28T17:31:54;5.68;;;1.15;;
49764;SDS011;35657;51.204;-4.130;2023-02-28T17:34:20;2.97;;;1.02;;
49764;SDS011;35657;51.204;-4.130;2023-02-28T17:36:47;3.83;;;1.92;;
49764;SDS011;35657;51.204;-4.130;2023-02-28T17:39:14;3.42;;;1.80;;